Aquidauana, Brazil
Current Conditions -  °F | °C
As of 12:00 AM on Sunday 23 Nov 2014 (Local Time) from SBCG Reporting Station
Scattered Clouds Scattered Clouds  
Wind Chill: 66°   Ceiling: Unl
Heat Index: 66°   Visibility: 6mi
Dew Point: 66°   Wind: 10mph
Humidity: 100%   Direction: 120°ESE
Pressure: 29.94"   Gusts: NA
Location:  20.47°S, 55.79°W
Report Text: SBCG 230300Z 12009KT 9999 SCT005 19/19 Q1014
Loading
Personal Weather Stations






























Interactive Weather Map New forecast layout! Learn more

10-Day Weather Forecast

Advertisements
Track Severe Weather on mobile